sensor_id;sensor_type;location;lat;lon;timestamp;pressure;altitude;pressure_sealevel;temperature;humidity
25610;BME280;13479;49.044;8.716;2024-02-04T05:03:07;100076.72;;;9.46;72.25
25610;BME280;13479;49.044;8.716;2024-02-04T05:05:32;100103.00;;;9.49;72.00
25610;BME280;13479;49.044;8.716;2024-02-04T05:07:57;100114.16;;;9.54;71.81
25610;BME280;13479;49.044;8.716;2024-02-04T05:10:23;100122.34;;;9.64;71.20
25610;BME280;13479;49.044;8.716;2024-02-04T05:12:48;100146.75;;;9.56;71.00
25610;BME280;13479;49.044;8.716;2024-02-04T05:15:14;100169.31;;;9.76;70.17
25610;BME280;13479;49.044;8.716;2024-02-04T05:17:39;100164.84;;;9.49;70.87
25610;BME280;13479;49.044;8.716;2024-02-04T05:20:05;100163.38;;;9.58;70.56
25610;BME280;13479;49.044;8.716;2024-02-04T05:22:31;100133.97;;;9.48;71.04
25610;BME280;13479;49.044;8.716;2024-02-04T05:24:57;100125.06;;;9.49;70.65
25610;BME280;13479;49.044;8.716;2024-02-04T05:27:22;100144.09;;;9.41;70.91
25610;BME280;13479;49.044;8.716;2024-02-04T05:29:47;100126.38;;;9.42;70.78
25610;BME280;13479;49.044;8.716;2024-02-04T05:32:13;100145.69;;;9.44;70.31
25610;BME280;13479;49.044;8.716;2024-02-04T05:34:38;100102.00;;;9.37;71.05
25610;BME280;13479;49.044;8.716;2024-02-04T05:37:03;100096.88;;;9.34;70.96
25610;BME280;13479;49.044;8.716;2024-02-04T05:39:29;100093.22;;;9.22;71.19
25610;BME280;13479;49.044;8.716;2024-02-04T05:41:54;100049.28;;;9.32;71.45
25610;BME280;13479;49.044;8.716;2024-02-04T05:44:19;100059.25;;;9.29;70.77
25610;BME280;13479;49.044;8.716;2024-02-04T05:46:44;100087.03;;;9.36;70.73
25610;BME280;13479;49.044;8.716;2024-02-04T05:49:10;100067.22;;;9.14;71.41
25610;BME280;13479;49.044;8.716;2024-02-04T05:51:40;100041.47;;;9.16;71.71
25610;BME280;13479;49.044;8.716;2024-02-04T05:54:06;100029.72;;;9.20;71.47
25610;BME280;13479;49.044;8.716;2024-02-04T05:56:32;100040.25;;;9.07;71.80
25610;BME280;13479;49.044;8.716;2024-02-04T05:58:57;100039.84;;;9.14;71.51
25610;BME280;13479;49.044;8.716;2024-02-04T06:01:22;100058.09;;;9.18;71.64
25610;BME280;13479;49.044;8.716;2024-02-04T06:03:48;100043.53;;;9.25;71.44
25610;BME280;13479;49.044;8.716;2024-02-04T06:06:17;100047.72;;;9.15;71.79
25610;BME280;13479;49.044;8.716;2024-02-04T06:08:45;100023.31;;;9.10;72.14
25610;BME280;13479;49.044;8.716;2024-02-04T06:11:11;100041.63;;;9.27;71.53
25610;BME280;13479;49.044;8.716;2024-02-04T06:13:40;100059.25;;;9.29;71.12
25610;BME280;13479;49.044;8.716;2024-02-04T06:16:05;100083.28;;;9.25;71.29
25610;BME280;13479;49.044;8.716;2024-02-04T06:18:31;100104.84;;;9.34;70.53
25610;BME280;13479;49.044;8.716;2024-02-04T06:20:56;100088.78;;;9.08;71.47
25610;BME280;13479;49.044;8.716;2024-02-04T06:23:21;100056.81;;;9.11;71.60
25610;BME280;13479;49.044;8.716;2024-02-04T06:25:47;100062.00;;;9.12;71.68
25610;BME280;13479;49.044;8.716;2024-02-04T06:28:13;100058.50;;;9.12;71.78
25610;BME280;13479;49.044;8.716;2024-02-04T06:30:38;100009.13;;;8.96;72.02
25610;BME280;13479;49.044;8.716;2024-02-04T06:33:03;100011.22;;;9.06;72.25
25610;BME280;13479;49.044;8.716;2024-02-04T06:35:29;100002.41;;;9.05;71.98
25610;BME280;13479;49.044;8.716;2024-02-04T06:37:54;100021.00;;;9.18;71.66
25610;BME280;13479;49.044;8.716;2024-02-04T06:40:19;100029.25;;;9.14;71.83
25610;BME280;13479;49.044;8.716;2024-02-04T06:42:45;100023.13;;;9.13;71.80
25610;BME280;13479;49.044;8.716;2024-02-04T06:45:10;100046.38;;;9.08;71.76
25610;BME280;13479;49.044;8.716;2024-02-04T06:47:35;100023.13;;;9.13;72.12
25610;BME280;13479;49.044;8.716;2024-02-04T06:50:01;100006.34;;;9.12;72.36
25610;BME280;13479;49.044;8.716;2024-02-04T06:52:30;99998.13;;;9.17;72.05
25610;BME280;13479;49.044;8.716;2024-02-04T06:54:55;99998.41;;;9.12;72.19
25610;BME280;13479;49.044;8.716;2024-02-04T06:57:20;99991.72;;;9.07;72.46
25610;BME280;13479;49.044;8.716;2024-02-04T06:59:46;99968.16;;;9.02;72.78
25610;BME280;13479;49.044;8.716;2024-02-04T07:02:11;99985.16;;;9.12;72.44
25610;BME280;13479;49.044;8.716;2024-02-04T07:04:37;99992.25;;;9.26;72.27
25610;BME280;13479;49.044;8.716;2024-02-04T07:07:02;100003.44;;;9.17;72.28
25610;BME280;13479;49.044;8.716;2024-02-04T07:09:28;99988.03;;;9.09;72.66
25610;BME280;13479;49.044;8.716;2024-02-04T07:11:53;99952.53;;;9.12;72.87
25610;BME280;13479;49.044;8.716;2024-02-04T07:14:18;99929.44;;;9.14;73.19
25610;BME280;13479;49.044;8.716;2024-02-04T07:16:44;99931.28;;;9.26;72.96
25610;BME280;13479;49.044;8.716;2024-02-04T07:19:09;99958.31;;;9.32;72.58
25610;BME280;13479;49.044;8.716;2024-02-04T07:21:34;99957.97;;;9.23;72.84
25610;BME280;13479;49.044;8.716;2024-02-04T07:23:59;99968.00;;;9.18;73.08
25610;BME280;13479;49.044;8.716;2024-02-04T07:26:25;99924.34;;;9.11;73.83
25610;BME280;13479;49.044;8.716;2024-02-04T07:28:50;99928.09;;;9.21;73.71
25610;BME280;13479;49.044;8.716;2024-02-04T07:31:15;99926.31;;;9.35;73.50
25610;BME280;13479;49.044;8.716;2024-02-04T07:33:40;99939.56;;;9.35;73.57
25610;BME280;13479;49.044;8.716;2024-02-04T07:36:08;99954.91;;;9.30;73.67
25610;BME280;13479;49.044;8.716;2024-02-04T07:38:33;99946.91;;;9.44;73.47
25610;BME280;13479;49.044;8.716;2024-02-04T07:40:59;99976.63;;;9.49;73.26
25610;BME280;13479;49.044;8.716;2024-02-04T07:43:25;99979.13;;;9.38;73.44
25610;BME280;13479;49.044;8.716;2024-02-04T07:45:50;99979.91;;;9.53;73.18
25610;BME280;13479;49.044;8.716;2024-02-04T07:48:16;99965.13;;;9.36;73.70
25610;BME280;13479;49.044;8.716;2024-02-04T07:50:42;99941.09;;;9.39;73.94
25610;BME280;13479;49.044;8.716;2024-02-04T07:53:07;99951.38;;;9.56;73.50
25610;BME280;13479;49.044;8.716;2024-02-04T07:55:33;100003.78;;;9.66;72.69
25610;BME280;13479;49.044;8.716;2024-02-04T07:57:59;100026.75;;;9.52;72.89
25610;BME280;13479;49.044;8.716;2024-02-04T08:00:24;100006.13;;;9.57;73.04
25610;BME280;13479;49.044;8.716;2024-02-04T08:02:49;100025.44;;;9.60;73.19
25610;BME280;13479;49.044;8.716;2024-02-04T08:05:15;100025.50;;;9.58;73.14
25610;BME280;13479;49.044;8.716;2024-02-04T08:07:40;100011.63;;;9.54;73.67
25610;BME280;13479;49.044;8.716;2024-02-04T08:10:06;99959.16;;;9.60;73.64
25610;BME280;13479;49.044;8.716;2024-02-04T08:12:32;99994.88;;;9.67;72.98
25610;BME280;13479;49.044;8.716;2024-02-04T08:14:58;100018.22;;;9.62;72.64
25610;BME280;13479;49.044;8.716;2024-02-04T08:17:23;100063.78;;;9.81;72.19
25610;BME280;13479;49.044;8.716;2024-02-04T08:19:48;100087.09;;;9.76;72.20
25610;BME280;13479;49.044;8.716;2024-02-04T08:22:14;100125.72;;;9.80;71.45
25610;BME280;13479;49.044;8.716;2024-02-04T08:24:39;100140.88;;;9.78;71.36
25610;BME280;13479;49.044;8.716;2024-02-04T08:27:04;100175.16;;;9.81;70.59
25610;BME280;13479;49.044;8.716;2024-02-04T08:29:30;100151.03;;;9.71;71.21
25610;BME280;13479;49.044;8.716;2024-02-04T08:31:55;100153.38;;;9.76;70.81
25610;BME280;13479;49.044;8.716;2024-02-04T08:34:21;100152.75;;;9.72;70.97
25610;BME280;13479;49.044;8.716;2024-02-04T08:36:49;100136.00;;;9.72;70.83
25610;BME280;13479;49.044;8.716;2024-02-04T08:39:14;100146.66;;;9.85;70.85
25610;BME280;13479;49.044;8.716;2024-02-04T08:41:41;100149.19;;;9.86;70.54
25610;BME280;13479;49.044;8.716;2024-02-04T08:44:06;100138.38;;;9.89;70.53
25610;BME280;13479;49.044;8.716;2024-02-04T08:46:31;100135.88;;;10.01;70.06
25610;BME280;13479;49.044;8.716;2024-02-04T08:48:57;100193.19;;;10.03;69.23
25610;BME280;13479;49.044;8.716;2024-02-04T08:51:22;100208.06;;;10.06;68.77
25610;BME280;13479;49.044;8.716;2024-02-04T08:53:47;100186.53;;;9.83;69.29
25610;BME280;13479;49.044;8.716;2024-02-04T08:56:13;100154.09;;;9.93;69.10
25610;BME280;13479;49.044;8.716;2024-02-04T08:58:38;100147.84;;;9.94;69.38
25610;BME280;13479;49.044;8.716;2024-02-04T09:01:04;100126.69;;;9.79;69.84
25610;BME280;13479;49.044;8.716;2024-02-04T09:03:30;100102.19;;;9.88;69.63
25610;BME280;13479;49.044;8.716;2024-02-04T09:05:57;100106.97;;;9.83;69.62
25610;BME280;13479;49.044;8.716;2024-02-04T09:08:22;100112.72;;;9.90;69.30
25610;BME280;13479;49.044;8.716;2024-02-04T09:10:47;100128.84;;;9.87;69.34
25610;BME280;13479;49.044;8.716;2024-02-04T09:13:12;100126.72;;;9.92;69.07
25610;BME280;13479;49.044;8.716;2024-02-04T09:15:38;100133.28;;;9.86;69.29
25610;BME280;13479;49.044;8.716;2024-02-04T09:18:03;100142.28;;;10.11;68.56
25610;BME280;13479;49.044;8.716;2024-02-04T09:20:29;100175.63;;;10.15;68.20
25610;BME280;13479;49.044;8.716;2024-02-04T09:22:54;100158.94;;;10.13;68.62
25610;BME280;13479;49.044;8.716;2024-02-04T09:25:19;100160.59;;;10.29;68.06
25610;BME280;13479;49.044;8.716;2024-02-04T09:27:45;100165.47;;;10.35;67.75
25610;BME280;13479;49.044;8.716;2024-02-04T09:30:10;100145.56;;;10.42;67.72
25610;BME280;13479;49.044;8.716;2024-02-04T09:32:37;100145.16;;;10.48;67.63
25610;BME280;13479;49.044;8.716;2024-02-04T09:35:03;100160.25;;;10.61;66.99
25610;BME280;13479;49.044;8.716;2024-02-04T09:37:28;100153.13;;;10.48;67.16
25610;BME280;13479;49.044;8.716;2024-02-04T09:39:53;100126.69;;;10.60;66.78
25610;BME280;13479;49.044;8.716;2024-02-04T09:42:20;100112.03;;;10.54;66.62
25610;BME280;13479;49.044;8.716;2024-02-04T09:44:50;100115.50;;;10.55;66.38
25610;BME280;13479;49.044;8.716;2024-02-04T09:47:16;100095.56;;;10.62;66.69
25610;BME280;13479;49.044;8.716;2024-02-04T09:49:42;100086.94;;;10.71;65.92
25610;BME280;13479;49.044;8.716;2024-02-04T09:52:09;100100.97;;;10.86;65.44
25610;BME280;13479;49.044;8.716;2024-02-04T09:54:43;100089.25;;;10.89;65.24
25610;BME280;13479;49.044;8.716;2024-02-04T09:57:09;100093.53;;;10.91;64.96
25610;BME280;13479;49.044;8.716;2024-02-04T09:59:35;100068.88;;;10.76;65.66
25610;BME280;13479;49.044;8.716;2024-02-04T10:02:02;100063.13;;;10.82;65.50
25610;BME280;13479;49.044;8.716;2024-02-04T10:04:28;100045.91;;;10.75;65.92
25610;BME280;13479;49.044;8.716;2024-02-04T10:06:53;100037.66;;;10.80;65.96
25610;BME280;13479;49.044;8.716;2024-02-04T10:09:19;100039.72;;;10.88;65.94
25610;BME280;13479;49.044;8.716;2024-02-04T10:11:44;100051.03;;;10.91;65.61
25610;BME280;13479;49.044;8.716;2024-02-04T10:14:09;100069.28;;;10.83;65.36
25610;BME280;13479;49.044;8.716;2024-02-04T10:16:35;100068.53;;;10.81;65.70
25610;BME280;13479;49.044;8.716;2024-02-04T10:19:01;100083.94;;;10.89;65.31
25610;BME280;13479;49.044;8.716;2024-02-04T10:21:26;100091.81;;;10.77;65.31
25610;BME280;13479;49.044;8.716;2024-02-04T10:23:51;100074.84;;;10.80;65.29
25610;BME280;13479;49.044;8.716;2024-02-04T10:26:17;100063.13;;;10.82;65.80
25610;BME280;13479;49.044;8.716;2024-02-04T10:28:45;100035.38;;;10.87;65.50
25610;BME280;13479;49.044;8.716;2024-02-04T10:31:12;100038.13;;;10.98;65.29
25610;BME280;13479;49.044;8.716;2024-02-04T10:33:37;100074.84;;;11.17;64.76
25610;BME280;13479;49.044;8.716;2024-02-04T10:36:03;100064.22;;;11.30;64.68
25610;BME280;13479;49.044;8.716;2024-02-04T10:38:29;100065.28;;;11.52;64.08
25610;BME280;13479;49.044;8.716;2024-02-04T10:40:55;100068.00;;;11.63;63.67
25610;BME280;13479;49.044;8.716;2024-02-04T10:43:21;100078.69;;;11.74;62.83
25610;BME280;13479;49.044;8.716;2024-02-04T10:45:47;100054.59;;;11.65;63.21
25610;BME280;13479;49.044;8.716;2024-02-04T10:48:15;100037.31;;;11.70;63.47
25610;BME280;13479;49.044;8.716;2024-02-04T10:50:43;100076.81;;;11.88;62.49
25610;BME280;13479;49.044;8.716;2024-02-04T10:53:14;100032.31;;;11.90;62.34
25610;BME280;13479;49.044;8.716;2024-02-04T10:55:41;100044.25;;;12.09;62.12
25610;BME280;13479;49.044;8.716;2024-02-04T10:58:11;100035.44;;;11.84;62.54
25610;BME280;13479;49.044;8.716;2024-02-04T11:00:37;100000.34;;;11.79;62.67
25610;BME280;13479;49.044;8.716;2024-02-04T11:03:03;99989.13;;;11.86;62.93
25610;BME280;13479;49.044;8.716;2024-02-04T11:05:29;100013.41;;;11.82;62.97
25610;BME280;13479;49.044;8.716;2024-02-04T11:07:56;100011.00;;;11.90;62.99
25610;BME280;13479;49.044;8.716;2024-02-04T11:10:22;100058.56;;;12.19;61.59
25610;BME280;13479;49.044;8.716;2024-02-04T11:12:49;100046.66;;;12.12;61.34
25610;BME280;13479;49.044;8.716;2024-02-04T11:15:17;100026.34;;;12.11;61.84
25610;BME280;13479;49.044;8.716;2024-02-04T11:18:02;100017.06;;;12.28;61.67
25610;BME280;13479;49.044;8.716;2024-02-04T11:26:28;100009.38;;;13.25;58.75
25610;BME280;13479;49.044;8.716;2024-02-04T11:28:54;100023.91;;;13.33;57.89
25610;BME280;13479;49.044;8.716;2024-02-04T11:31:19;99996.28;;;13.34;58.07
25610;BME280;13479;49.044;8.716;2024-02-04T11:33:45;99982.09;;;13.22;58.36
25610;BME280;13479;49.044;8.716;2024-02-04T11:36:14;99980.56;;;13.19;58.28
25610;BME280;13479;49.044;8.716;2024-02-04T11:38:40;99999.03;;;13.00;57.95
25610;BME280;13479;49.044;8.716;2024-02-04T11:41:06;99979.88;;;12.94;58.28
25610;BME280;13479;49.044;8.716;2024-02-04T11:43:36;99948.41;;;12.77;58.89
25610;BME280;13479;49.044;8.716;2024-02-04T11:46:03;99916.47;;;12.65;59.15
25610;BME280;13479;49.044;8.716;2024-02-04T11:48:35;99887.88;;;12.56;59.44
25610;BME280;13479;49.044;8.716;2024-02-04T11:51:04;99869.53;;;12.42;59.60
25610;BME280;13479;49.044;8.716;2024-02-04T11:53:30;99843.53;;;12.23;60.13
25610;BME280;13479;49.044;8.716;2024-02-04T11:55:58;99810.13;;;11.96;60.77
25610;BME280;13479;49.044;8.716;2024-02-04T11:58:26;99789.94;;;11.82;61.25
25610;BME280;13479;49.044;8.716;2024-02-04T12:00:52;99782.91;;;11.58;61.82
25610;BME280;13479;49.044;8.716;2024-02-04T12:03:28;99763.81;;;11.30;62.45
25610;BME280;13479;49.044;8.716;2024-02-04T12:05:54;99742.78;;;11.27;63.22
25610;BME280;13479;49.044;8.716;2024-02-04T12:08:20;99737.44;;;11.16;63.31
25610;BME280;13479;49.044;8.716;2024-02-04T12:10:46;99714.59;;;11.02;63.82
25610;BME280;13479;49.044;8.716;2024-02-04T12:13:13;99718.69;;;10.94;64.57
25610;BME280;13479;49.044;8.716;2024-02-04T12:15:38;99722.03;;;10.85;65.03
25610;BME280;13479;49.044;8.716;2024-02-04T12:18:09;99707.19;;;10.82;65.40
25610;BME280;13479;49.044;8.716;2024-02-04T12:20:35;99735.19;;;10.87;65.23
25610;BME280;13479;49.044;8.716;2024-02-04T12:23:05;99739.44;;;10.89;65.65
25610;BME280;13479;49.044;8.716;2024-02-04T12:25:31;99740.03;;;10.81;65.57
25610;BME280;13479;49.044;8.716;2024-02-04T12:27:58;99735.84;;;10.90;65.65
25610;BME280;13479;49.044;8.716;2024-02-04T12:30:24;99745.94;;;10.85;65.66
25610;BME280;13479;49.044;8.716;2024-02-04T12:33:00;99740.50;;;10.87;65.83
25610;BME280;13479;49.044;8.716;2024-02-04T12:35:26;99744.19;;;10.97;65.71
25610;BME280;13479;49.044;8.716;2024-02-04T12:37:53;99745.63;;;11.01;65.92
25610;BME280;13479;49.044;8.716;2024-02-04T12:40:28;99742.47;;;10.85;66.08
25610;BME280;13479;49.044;8.716;2024-02-04T12:42:57;99718.25;;;10.76;66.77
25610;BME280;13479;49.044;8.716;2024-02-04T12:45:24;99734.19;;;10.76;66.81
25610;BME280;13479;49.044;8.716;2024-02-04T12:47:50;99732.66;;;10.85;66.69
25610;BME280;13479;49.044;8.716;2024-02-04T12:50:16;99735.06;;;10.77;66.96
25610;BME280;13479;49.044;8.716;2024-02-04T12:52:43;99751.44;;;10.71;66.89
25610;BME280;13479;49.044;8.716;2024-02-04T12:55:19;99771.72;;;10.96;66.29
25610;BME280;13479;49.044;8.716;2024-02-04T12:57:44;99742.44;;;10.73;67.46
25610;BME280;13479;49.044;8.716;2024-02-04T13:00:10;99739.28;;;10.79;67.88
25610;BME280;13479;49.044;8.716;2024-02-04T13:02:35;99747.88;;;10.83;67.60
25610;BME280;13479;49.044;8.716;2024-02-04T13:05:01;99747.50;;;10.88;67.25
25610;BME280;13479;49.044;8.716;2024-02-04T13:07:26;99753.22;;;10.94;67.27
25610;BME280;13479;49.044;8.716;2024-02-04T13:09:58;99793.88;;;10.84;66.70
25610;BME280;13479;49.044;8.716;2024-02-04T13:12:27;99764.28;;;10.77;67.42
25610;BME280;13479;49.044;8.716;2024-02-04T13:14:52;99766.94;;;10.77;67.43
25610;BME280;13479;49.044;8.716;2024-02-04T13:17:17;99739.47;;;10.65;67.52
25610;BME280;13479;49.044;8.716;2024-02-04T13:19:43;99722.84;;;10.63;67.62
25610;BME280;13479;49.044;8.716;2024-02-04T13:22:09;99701.59;;;10.63;68.13
25610;BME280;13479;49.044;8.716;2024-02-04T13:24:35;99702.19;;;10.66;68.10
25610;BME280;13479;49.044;8.716;2024-02-04T13:27:01;99713.44;;;10.70;68.12
25610;BME280;13479;49.044;8.716;2024-02-04T13:29:28;99701.13;;;10.69;68.39
25610;BME280;13479;49.044;8.716;2024-02-04T13:31:53;99719.56;;;10.71;68.08
25610;BME280;13479;49.044;8.716;2024-02-04T13:34:18;99730.84;;;10.74;68.08
25610;BME280;13479;49.044;8.716;2024-02-04T13:36:45;99716.94;;;10.82;68.02
25610;BME280;13479;49.044;8.716;2024-02-04T13:39:10;99747.91;;;10.94;67.75
25610;BME280;13479;49.044;8.716;2024-02-04T13:41:40;99764.78;;;10.93;67.70
25610;BME280;13479;49.044;8.716;2024-02-04T13:44:06;99774.13;;;10.99;67.39
25610;BME280;13479;49.044;8.716;2024-02-04T13:46:32;99784.97;;;10.85;67.78
25610;BME280;13479;49.044;8.716;2024-02-04T13:48:57;99759.06;;;10.75;68.40
25610;BME280;13479;49.044;8.716;2024-02-04T13:51:23;99737.09;;;10.73;68.47
25610;BME280;13479;49.044;8.716;2024-02-04T13:53:48;99730.63;;;10.89;68.19
25610;BME280;13479;49.044;8.716;2024-02-04T13:56:13;99730.13;;;10.84;68.46
25610;BME280;13479;49.044;8.716;2024-02-04T13:58:38;99726.16;;;10.89;67.89
25610;BME280;13479;49.044;8.716;2024-02-04T14:01:04;99749.56;;;10.84;68.15
25610;BME280;13479;49.044;8.716;2024-02-04T14:03:29;99742.91;;;10.78;68.34
25610;BME280;13479;49.044;8.716;2024-02-04T14:05:54;99730.50;;;10.79;68.26
25610;BME280;13479;49.044;8.716;2024-02-04T14:08:23;99715.13;;;10.71;68.71
25610;BME280;13479;49.044;8.716;2024-02-04T14:10:48;99720.91;;;10.76;68.91
25610;BME280;13479;49.044;8.716;2024-02-04T14:13:13;99727.44;;;10.72;68.95
25610;BME280;13479;49.044;8.716;2024-02-04T14:15:39;99761.97;;;10.72;68.77
25610;BME280;13479;49.044;8.716;2024-02-04T14:18:04;99761.09;;;10.72;69.24
25610;BME280;13479;49.044;8.716;2024-02-04T14:20:31;99754.00;;;10.72;69.32
25610;BME280;13479;49.044;8.716;2024-02-04T14:22:56;99747.22;;;10.68;69.62
25610;BME280;13479;49.044;8.716;2024-02-04T14:25:23;99749.25;;;10.64;70.48
25610;BME280;13479;49.044;8.716;2024-02-04T14:27:49;99754.00;;;10.72;70.39
25610;BME280;13479;49.044;8.716;2024-02-04T14:30:15;99755.53;;;10.63;70.48
25610;BME280;13479;49.044;8.716;2024-02-04T14:32:41;99760.06;;;10.50;70.81
25610;BME280;13479;49.044;8.716;2024-02-04T14:35:08;99759.00;;;10.53;70.88
25610;BME280;13479;49.044;8.716;2024-02-04T14:37:35;99774.19;;;10.50;70.73
25610;BME280;13479;49.044;8.716;2024-02-04T14:40:00;99774.81;;;10.54;70.99
25610;BME280;13479;49.044;8.716;2024-02-04T14:42:27;99790.00;;;10.52;70.99
25610;BME280;13479;49.044;8.716;2024-02-04T14:44:52;99771.75;;;10.47;71.29
25610;BME280;13479;49.044;8.716;2024-02-04T14:47:18;99794.75;;;10.60;70.96
25610;BME280;13479;49.044;8.716;2024-02-04T14:49:43;99812.09;;;10.53;70.93
25610;BME280;13479;49.044;8.716;2024-02-04T14:52:08;99782.59;;;10.44;71.37
25610;BME280;13479;49.044;8.716;2024-02-04T14:54:34;99780.19;;;10.41;71.51
25610;BME280;13479;49.044;8.716;2024-02-04T14:56:59;99780.69;;;10.46;71.30
25610;BME280;13479;49.044;8.716;2024-02-04T14:59:24;99796.19;;;10.53;71.26
25610;BME280;13479;49.044;8.716;2024-02-04T15:01:49;99804.44;;;10.48;71.22
25610;BME280;13479;49.044;8.716;2024-02-04T15:04:15;99790.81;;;10.41;71.10
25610;BME280;13479;49.044;8.716;2024-02-04T15:06:41;99791.09;;;10.49;71.06
25610;BME280;13479;49.044;8.716;2024-02-04T15:09:06;99794.28;;;10.42;71.28
25610;BME280;13479;49.044;8.716;2024-02-04T15:11:32;99783.34;;;10.46;71.26
25610;BME280;13479;49.044;8.716;2024-02-04T15:13:59;99796.47;;;10.48;71.06
25610;BME280;13479;49.044;8.716;2024-02-04T15:16:25;99790.06;;;10.39;71.60
25610;BME280;13479;49.044;8.716;2024-02-04T15:18:50;99798.53;;;10.44;71.32
25610;BME280;13479;49.044;8.716;2024-02-04T15:21:16;99774.41;;;10.47;71.44
25610;BME280;13479;49.044;8.716;2024-02-04T15:23:41;99779.19;;;10.42;71.52
25610;BME280;13479;49.044;8.716;2024-02-04T15:26:12;99805.75;;;10.42;71.07
25610;BME280;13479;49.044;8.716;2024-02-04T15:28:40;99805.66;;;10.31;71.53
25610;BME280;13479;49.044;8.716;2024-02-04T15:31:06;99785.97;;;10.22;71.93
25610;BME280;13479;49.044;8.716;2024-02-04T15:33:33;99780.03;;;10.18;71.34
25610;BME280;13479;49.044;8.716;2024-02-04T15:35:58;99785.63;;;10.27;71.32
25610;BME280;13479;49.044;8.716;2024-02-04T15:38:24;99779.03;;;10.19;71.79
25610;BME280;13479;49.044;8.716;2024-02-04T15:40:49;99770.28;;;10.06;72.21
25610;BME280;13479;49.044;8.716;2024-02-04T15:43:15;99780.66;;;10.09;72.08
25610;BME280;13479;49.044;8.716;2024-02-04T15:45:40;99795.41;;;10.13;72.05
25610;BME280;13479;49.044;8.716;2024-02-04T15:48:08;99787.25;;;10.03;72.25
25610;BME280;13479;49.044;8.716;2024-02-04T15:50:34;99797.31;;;10.24;72.19
25610;BME280;13479;49.044;8.716;2024-02-04T15:53:00;99804.53;;;10.22;71.85
25610;BME280;13479;49.044;8.716;2024-02-04T15:55:25;99817.19;;;10.18;72.30
25610;BME280;13479;49.044;8.716;2024-02-04T15:57:51;99819.59;;;10.22;72.18
25610;BME280;13479;49.044;8.716;2024-02-04T16:00:18;99818.41;;;10.26;72.05
25610;BME280;13479;49.044;8.716;2024-02-04T16:02:49;99844.00;;;10.27;71.79
25610;BME280;13479;49.044;8.716;2024-02-04T16:05:15;99844.66;;;10.17;72.13
25610;BME280;13479;49.044;8.716;2024-02-04T16:07:44;99812.38;;;10.24;72.04
25610;BME280;13479;49.044;8.716;2024-02-04T16:10:15;99851.28;;;10.36;71.10
25610;BME280;13479;49.044;8.716;2024-02-04T16:12:55;99845.69;;;10.28;71.63
25610;BME280;13479;49.044;8.716;2024-02-04T16:15:24;99891.97;;;10.24;71.29
25610;BME280;13479;49.044;8.716;2024-02-04T16:17:50;99856.66;;;10.23;71.71
25610;BME280;13479;49.044;8.716;2024-02-04T16:20:16;99813.25;;;10.11;72.37
25610;BME280;13479;49.044;8.716;2024-02-04T16:22:43;99795.41;;;10.13;72.48
25610;BME280;13479;49.044;8.716;2024-02-04T16:25:08;99802.44;;;10.14;72.54
25610;BME280;13479;49.044;8.716;2024-02-04T16:27:35;99809.44;;;10.15;72.15
25610;BME280;13479;49.044;8.716;2024-02-04T16:30:02;99809.22;;;10.05;72.30
25610;BME280;13479;49.044;8.716;2024-02-04T16:32:29;99792.81;;;10.00;72.84
25610;BME280;13479;49.044;8.716;2024-02-04T16:34:54;99803.50;;;10.12;72.42
25610;BME280;13479;49.044;8.716;2024-02-04T16:37:20;99800.19;;;10.08;72.91
25610;BME280;13479;49.044;8.716;2024-02-04T16:39:45;99808.56;;;10.15;72.84
25610;BME280;13479;49.044;8.716;2024-02-04T16:42:10;99802.00;;;10.08;72.88
25610;BME280;13479;49.044;8.716;2024-02-04T16:44:36;99814.53;;;10.18;72.56
25610;BME280;13479;49.044;8.716;2024-02-04T16:47:01;99836.91;;;10.14;72.23
25610;BME280;13479;49.044;8.716;2024-02-04T16:49:27;99843.94;;;10.15;72.35
25610;BME280;13479;49.044;8.716;2024-02-04T16:51:52;99856.75;;;10.22;72.22
25610;BME280;13479;49.044;8.716;2024-02-04T16:54:18;99862.91;;;10.22;72.09
25610;BME280;13479;49.044;8.716;2024-02-04T16:56:45;99872.16;;;10.16;72.48
25610;BME280;13479;49.044;8.716;2024-02-04T16:59:14;99857.16;;;10.28;71.99
25610;BME280;13479;49.044;8.716;2024-02-04T17:01:39;99849.66;;;10.22;72.35
25610;BME280;13479;49.044;8.716;2024-02-04T17:04:05;99862.72;;;10.12;72.38
25610;BME280;13479;49.044;8.716;2024-02-04T17:06:31;99843.59;;;10.20;72.30
25610;BME280;13479;49.044;8.716;2024-02-04T17:08:57;99860.59;;;10.17;72.12
25610;BME280;13479;49.044;8.716;2024-02-04T17:11:23;99838.31;;;10.07;72.44
25610;BME280;13479;49.044;8.716;2024-02-04T17:13:51;99803.09;;;10.05;73.10
25610;BME280;13479;49.044;8.716;2024-02-04T17:16:32;99828.75;;;10.17;72.39
25610;BME280;13479;49.044;8.716;2024-02-04T17:19:09;99839.03;;;10.09;72.83
25610;BME280;13479;49.044;8.716;2024-02-04T17:21:40;99842.13;;;10.03;72.46
25610;BME280;13479;49.044;8.716;2024-02-04T17:24:15;99860.81;;;10.14;72.16
25610;BME280;13479;49.044;8.716;2024-02-04T17:26:42;99861.75;;;10.13;72.10
25610;BME280;13479;49.044;8.716;2024-02-04T17:29:11;99878.31;;;10.17;72.34
25610;BME280;13479;49.044;8.716;2024-02-04T17:31:37;99847.66;;;10.13;72.32
25610;BME280;13479;49.044;8.716;2024-02-04T17:34:02;99821.41;;;10.08;72.81
25610;BME280;13479;49.044;8.716;2024-02-04T17:36:28;99815.16;;;10.09;72.96
25610;BME280;13479;49.044;8.716;2024-02-04T17:38:53;99810.16;;;10.17;72.67
25610;BME280;13479;49.044;8.716;2024-02-04T17:41:18;99848.03;;;10.32;72.41
25610;BME280;13479;49.044;8.716;2024-02-04T17:43:45;99875.72;;;10.28;72.11
25610;BME280;13479;49.044;8.716;2024-02-04T17:46:10;99871.03;;;10.32;72.16
25610;BME280;13479;49.044;8.716;2024-02-04T17:48:36;99882.22;;;10.24;72.05
25610;BME280;13479;49.044;8.716;2024-02-04T17:51:01;99884.75;;;10.26;71.82
25610;BME280;13479;49.044;8.716;2024-02-04T17:53:26;99928.72;;;10.30;71.29
25610;BME280;13479;49.044;8.716;2024-02-04T17:55:52;99914.00;;;10.13;71.85
25610;BME280;13479;49.044;8.716;2024-02-04T17:58:19;99873.13;;;10.15;71.97
25610;BME280;13479;49.044;8.716;2024-02-04T18:00:45;99877.97;;;10.22;71.83
25610;BME280;13479;49.044;8.716;2024-02-04T18:03:10;99898.38;;;10.21;71.78